sensor_id;sensor_type;location;lat;lon;timestamp;P1;durP1;ratioP1;P2;durP2;ratioP2
61840;SDS011;47773;53.174;6.614;2022-09-01T00:01:50;4.82;;;2.10;;
61840;SDS011;47773;53.174;6.614;2022-09-01T00:04:17;3.83;;;1.30;;
61840;SDS011;47773;53.174;6.614;2022-09-01T00:06:45;2.63;;;1.33;;
61840;SDS011;47773;53.174;6.614;2022-09-01T00:09:13;3.67;;;1.30;;
61840;SDS011;47773;53.174;6.614;2022-09-01T00:11:42;3.85;;;1.35;;
61840;SDS011;47773;53.174;6.614;2022-09-01T00:14:11;5.10;;;1.20;;
61840;SDS011;47773;53.174;6.614;2022-09-01T00:16:37;4.38;;;1.40;;
61840;SDS011;47773;53.174;6.614;2022-09-01T00:19:04;3.63;;;1.30;;
61840;SDS011;47773;53.174;6.614;2022-09-01T00:21:31;3.05;;;1.35;;
61840;SDS011;47773;53.174;6.614;2022-09-01T00:23:59;4.03;;;1.30;;
61840;SDS011;47773;53.174;6.614;2022-09-01T00:26:26;2.65;;;1.35;;
61840;SDS011;47773;53.174;6.614;2022-09-01T00:28:52;2.38;;;1.23;;
61840;SDS011;47773;53.174;6.614;2022-09-01T00:31:18;5.00;;;1.45;;
61840;SDS011;47773;53.174;6.614;2022-09-01T00:33:45;2.35;;;1.25;;
61840;SDS011;47773;53.174;6.614;2022-09-01T00:36:13;7.03;;;1.40;;
61840;SDS011;47773;53.174;6.614;2022-09-01T00:38:40;4.05;;;1.25;;
61840;SDS011;47773;53.174;6.614;2022-09-01T00:41:06;3.17;;;1.60;;
61840;SDS011;47773;53.174;6.614;2022-09-01T00:46:33;2.55;;;1.38;;
61840;SDS011;47773;53.174;6.614;2022-09-01T00:49:03;6.25;;;1.60;;
61840;SDS011;47773;53.174;6.614;2022-09-01T00:51:32;5.90;;;1.20;;
61840;SDS011;47773;53.174;6.614;2022-09-01T00:54:02;4.30;;;1.80;;
61840;SDS011;47773;53.174;6.614;2022-09-01T00:56:30;3.83;;;1.27;;
61840;SDS011;47773;53.174;6.614;2022-09-01T00:58:58;3.47;;;1.40;;
61840;SDS011;47773;53.174;6.614;2022-09-01T01:01:24;2.20;;;1.40;;
61840;SDS011;47773;53.174;6.614;2022-09-01T01:03:50;5.15;;;1.60;;
61840;SDS011;47773;53.174;6.614;2022-09-01T01:06:17;3.05;;;1.55;;
61840;SDS011;47773;53.174;6.614;2022-09-01T01:08:48;5.25;;;1.35;;
61840;SDS011;47773;53.174;6.614;2022-09-01T01:11:22;2.95;;;1.60;;
61840;SDS011;47773;53.174;6.614;2022-09-01T01:14:08;3.72;;;1.52;;
61840;SDS011;47773;53.174;6.614;2022-09-01T01:16:38;2.17;;;1.40;;
61840;SDS011;47773;53.174;6.614;2022-09-01T01:19:27;6.32;;;1.60;;
61840;SDS011;47773;53.174;6.614;2022-09-01T01:22:23;2.45;;;1.35;;
61840;SDS011;47773;53.174;6.614;2022-09-01T01:25:17;5.35;;;1.77;;
61840;SDS011;47773;53.174;6.614;2022-09-01T01:27:46;4.32;;;1.48;;
61840;SDS011;47773;53.174;6.614;2022-09-01T01:30:12;2.65;;;1.50;;
61840;SDS011;47773;53.174;6.614;2022-09-01T01:32:40;2.55;;;1.45;;
61840;SDS011;47773;53.174;6.614;2022-09-01T01:35:07;2.17;;;1.50;;
61840;SDS011;47773;53.174;6.614;2022-09-01T01:37:43;3.78;;;1.70;;
61840;SDS011;47773;53.174;6.614;2022-09-01T01:40:14;4.53;;;1.60;;
61840;SDS011;47773;53.174;6.614;2022-09-01T01:42:44;2.72;;;1.70;;
61840;SDS011;47773;53.174;6.614;2022-09-01T01:45:14;3.78;;;1.90;;
61840;SDS011;47773;53.174;6.614;2022-09-01T01:50:15;9.70;;;1.60;;
61840;SDS011;47773;53.174;6.614;2022-09-01T01:52:41;8.02;;;1.70;;
61840;SDS011;47773;53.174;6.614;2022-09-01T01:55:08;5.68;;;1.75;;
61840;SDS011;47773;53.174;6.614;2022-09-01T01:57:39;5.53;;;1.85;;
61840;SDS011;47773;53.174;6.614;2022-09-01T02:00:14;7.53;;;2.00;;
61840;SDS011;47773;53.174;6.614;2022-09-01T02:02:45;4.53;;;2.10;;
61840;SDS011;47773;53.174;6.614;2022-09-01T02:05:17;4.68;;;1.98;;
61840;SDS011;47773;53.174;6.614;2022-09-01T02:07:47;3.13;;;1.67;;
61840;SDS011;47773;53.174;6.614;2022-09-01T02:10:14;9.38;;;1.60;;
61840;SDS011;47773;53.174;6.614;2022-09-01T02:12:40;7.38;;;2.25;;
61840;SDS011;47773;53.174;6.614;2022-09-01T02:15:06;3.60;;;1.67;;
61840;SDS011;47773;53.174;6.614;2022-09-01T02:17:32;4.57;;;2.03;;
61840;SDS011;47773;53.174;6.614;2022-09-01T02:19:58;4.90;;;1.98;;
61840;SDS011;47773;53.174;6.614;2022-09-01T02:22:23;3.90;;;1.98;;
61840;SDS011;47773;53.174;6.614;2022-09-01T02:24:49;4.82;;;1.98;;
61840;SDS011;47773;53.174;6.614;2022-09-01T02:27:17;3.80;;;2.08;;
61840;SDS011;47773;53.174;6.614;2022-09-01T02:29:49;3.75;;;1.85;;
61840;SDS011;47773;53.174;6.614;2022-09-01T02:32:19;3.25;;;1.80;;
61840;SDS011;47773;53.174;6.614;2022-09-01T02:34:47;4.68;;;1.55;;
61840;SDS011;47773;53.174;6.614;2022-09-01T02:37:18;3.65;;;1.60;;
61840;SDS011;47773;53.174;6.614;2022-09-01T02:39:49;4.82;;;2.30;;
61840;SDS011;47773;53.174;6.614;2022-09-01T02:42:16;2.63;;;1.70;;
61840;SDS011;47773;53.174;6.614;2022-09-01T02:44:41;4.50;;;2.13;;
61840;SDS011;47773;53.174;6.614;2022-09-01T02:47:08;3.78;;;2.13;;
61840;SDS011;47773;53.174;6.614;2022-09-01T02:49:34;3.63;;;1.50;;
61840;SDS011;47773;53.174;6.614;2022-09-01T02:52:00;6.50;;;1.92;;
61840;SDS011;47773;53.174;6.614;2022-09-01T02:54:27;5.65;;;1.98;;
61840;SDS011;47773;53.174;6.614;2022-09-01T02:56:55;5.03;;;1.75;;
61840;SDS011;47773;53.174;6.614;2022-09-01T02:59:22;4.53;;;2.03;;
61840;SDS011;47773;53.174;6.614;2022-09-01T03:01:50;6.15;;;2.08;;
61840;SDS011;47773;53.174;6.614;2022-09-01T03:04:18;5.43;;;2.20;;
61840;SDS011;47773;53.174;6.614;2022-09-01T03:06:46;3.08;;;1.90;;
61840;SDS011;47773;53.174;6.614;2022-09-01T03:09:15;4.35;;;2.10;;
61840;SDS011;47773;53.174;6.614;2022-09-01T03:11:43;6.22;;;1.90;;
61840;SDS011;47773;53.174;6.614;2022-09-01T03:14:11;3.72;;;2.40;;
61840;SDS011;47773;53.174;6.614;2022-09-01T03:16:38;4.60;;;2.08;;
61840;SDS011;47773;53.174;6.614;2022-09-01T03:19:04;3.40;;;2.08;;
61840;SDS011;47773;53.174;6.614;2022-09-01T03:21:35;3.17;;;1.67;;
61840;SDS011;47773;53.174;6.614;2022-09-01T03:24:06;4.28;;;2.30;;
61840;SDS011;47773;53.174;6.614;2022-09-01T03:26:34;7.15;;;2.20;;
61840;SDS011;47773;53.174;6.614;2022-09-01T03:29:00;3.67;;;1.95;;
61840;SDS011;47773;53.174;6.614;2022-09-01T03:31:27;6.40;;;1.90;;
61840;SDS011;47773;53.174;6.614;2022-09-01T03:33:53;4.63;;;1.90;;
61840;SDS011;47773;53.174;6.614;2022-09-01T03:36:21;3.38;;;2.00;;
61840;SDS011;47773;53.174;6.614;2022-09-01T03:38:49;4.15;;;2.30;;
61840;SDS011;47773;53.174;6.614;2022-09-01T03:41:17;4.28;;;2.25;;
61840;SDS011;47773;53.174;6.614;2022-09-01T03:43:45;5.55;;;2.35;;
61840;SDS011;47773;53.174;6.614;2022-09-01T03:46:12;4.00;;;2.13;;
61840;SDS011;47773;53.174;6.614;2022-09-01T03:48:55;6.93;;;2.25;;
61840;SDS011;47773;53.174;6.614;2022-09-01T03:51:23;8.85;;;3.00;;
61840;SDS011;47773;53.174;6.614;2022-09-01T03:53:50;3.70;;;2.50;;
61840;SDS011;47773;53.174;6.614;2022-09-01T03:56:21;5.00;;;2.42;;
61840;SDS011;47773;53.174;6.614;2022-09-01T03:58:49;16.75;;;2.38;;
61840;SDS011;47773;53.174;6.614;2022-09-01T04:01:16;5.15;;;2.50;;
61840;SDS011;47773;53.174;6.614;2022-09-01T04:03:42;4.57;;;2.40;;
61840;SDS011;47773;53.174;6.614;2022-09-01T04:06:10;4.50;;;2.42;;
61840;SDS011;47773;53.174;6.614;2022-09-01T04:08:37;5.72;;;2.97;;
61840;SDS011;47773;53.174;6.614;2022-09-01T04:11:08;5.55;;;2.72;;
61840;SDS011;47773;53.174;6.614;2022-09-01T04:13:38;3.85;;;2.42;;
61840;SDS011;47773;53.174;6.614;2022-09-01T04:16:05;5.93;;;2.60;;
61840;SDS011;47773;53.174;6.614;2022-09-01T04:18:54;5.05;;;2.33;;
61840;SDS011;47773;53.174;6.614;2022-09-01T04:21:19;6.57;;;2.58;;
61840;SDS011;47773;53.174;6.614;2022-09-01T04:23:45;6.50;;;2.72;;
61840;SDS011;47773;53.174;6.614;2022-09-01T04:26:13;5.20;;;2.40;;
61840;SDS011;47773;53.174;6.614;2022-09-01T04:28:43;6.00;;;2.50;;
61840;SDS011;47773;53.174;6.614;2022-09-01T04:31:15;4.68;;;2.60;;
61840;SDS011;47773;53.174;6.614;2022-09-01T04:33:47;8.30;;;2.60;;
61840;SDS011;47773;53.174;6.614;2022-09-01T04:38:53;5.55;;;2.72;;
61840;SDS011;47773;53.174;6.614;2022-09-01T04:41:22;4.93;;;2.42;;
61840;SDS011;47773;53.174;6.614;2022-09-01T04:43:50;4.57;;;2.60;;
61840;SDS011;47773;53.174;6.614;2022-09-01T04:46:19;10.20;;;2.90;;
61840;SDS011;47773;53.174;6.614;2022-09-01T04:48:45;8.20;;;2.58;;
61840;SDS011;47773;53.174;6.614;2022-09-01T04:51:12;7.90;;;2.92;;
61840;SDS011;47773;53.174;6.614;2022-09-01T04:53:40;9.82;;;3.03;;
61840;SDS011;47773;53.174;6.614;2022-09-01T04:56:13;4.82;;;2.88;;
61840;SDS011;47773;53.174;6.614;2022-09-01T04:58:45;5.15;;;3.65;;
61840;SDS011;47773;53.174;6.614;2022-09-01T05:01:13;6.85;;;3.00;;
61840;SDS011;47773;53.174;6.614;2022-09-01T05:03:43;4.93;;;3.05;;
61840;SDS011;47773;53.174;6.614;2022-09-01T05:06:16;9.43;;;2.95;;
61840;SDS011;47773;53.174;6.614;2022-09-01T05:08:44;4.68;;;3.08;;
61840;SDS011;47773;53.174;6.614;2022-09-01T05:11:10;5.47;;;3.05;;
61840;SDS011;47773;53.174;6.614;2022-09-01T05:13:38;7.22;;;3.20;;
61840;SDS011;47773;53.174;6.614;2022-09-01T05:16:05;5.57;;;3.03;;
61840;SDS011;47773;53.174;6.614;2022-09-01T05:18:37;4.57;;;2.83;;
61840;SDS011;47773;53.174;6.614;2022-09-01T05:21:05;6.35;;;3.53;;
61840;SDS011;47773;53.174;6.614;2022-09-01T05:23:36;5.03;;;3.50;;
61840;SDS011;47773;53.174;6.614;2022-09-01T05:26:05;5.18;;;2.90;;
61840;SDS011;47773;53.174;6.614;2022-09-01T05:28:45;8.48;;;3.70;;
61840;SDS011;47773;53.174;6.614;2022-09-01T05:31:13;8.38;;;3.60;;
61840;SDS011;47773;53.174;6.614;2022-09-01T05:33:43;8.80;;;3.30;;
61840;SDS011;47773;53.174;6.614;2022-09-01T05:36:12;7.15;;;3.50;;
61840;SDS011;47773;53.174;6.614;2022-09-01T05:38:44;5.80;;;3.93;;
61840;SDS011;47773;53.174;6.614;2022-09-01T05:41:12;8.05;;;3.72;;
61840;SDS011;47773;53.174;6.614;2022-09-01T05:43:40;6.30;;;3.63;;
61840;SDS011;47773;53.174;6.614;2022-09-01T05:46:10;5.88;;;3.97;;
61840;SDS011;47773;53.174;6.614;2022-09-01T05:48:36;6.57;;;3.75;;
61840;SDS011;47773;53.174;6.614;2022-09-01T05:51:04;6.22;;;3.63;;
61840;SDS011;47773;53.174;6.614;2022-09-01T05:53:31;5.47;;;3.92;;
61840;SDS011;47773;53.174;6.614;2022-09-01T05:55:58;7.43;;;3.90;;
61840;SDS011;47773;53.174;6.614;2022-09-01T05:58:31;6.85;;;4.10;;
61840;SDS011;47773;53.174;6.614;2022-09-01T06:00:58;5.25;;;3.55;;
61840;SDS011;47773;53.174;6.614;2022-09-01T06:03:25;8.05;;;3.90;;
61840;SDS011;47773;53.174;6.614;2022-09-01T06:05:52;5.60;;;3.92;;
61840;SDS011;47773;53.174;6.614;2022-09-01T06:08:20;7.45;;;4.00;;
61840;SDS011;47773;53.174;6.614;2022-09-01T06:10:49;10.32;;;4.72;;
61840;SDS011;47773;53.174;6.614;2022-09-01T06:13:16;7.90;;;4.82;;
61840;SDS011;47773;53.174;6.614;2022-09-01T06:15:49;9.38;;;4.88;;
61840;SDS011;47773;53.174;6.614;2022-09-01T06:18:17;7.93;;;4.20;;
61840;SDS011;47773;53.174;6.614;2022-09-01T06:20:44;7.20;;;4.63;;
61840;SDS011;47773;53.174;6.614;2022-09-01T06:23:10;8.55;;;4.65;;
61840;SDS011;47773;53.174;6.614;2022-09-01T06:25:39;8.77;;;5.18;;
61840;SDS011;47773;53.174;6.614;2022-09-01T06:28:14;8.43;;;5.00;;
61840;SDS011;47773;53.174;6.614;2022-09-01T06:30:42;10.68;;;4.85;;
61840;SDS011;47773;53.174;6.614;2022-09-01T06:33:10;9.18;;;4.90;;
61840;SDS011;47773;53.174;6.614;2022-09-01T06:35:38;9.63;;;4.50;;
61840;SDS011;47773;53.174;6.614;2022-09-01T06:38:06;9.15;;;4.40;;
61840;SDS011;47773;53.174;6.614;2022-09-01T06:40:33;8.93;;;4.55;;
61840;SDS011;47773;53.174;6.614;2022-09-01T06:43:00;8.95;;;4.75;;
61840;SDS011;47773;53.174;6.614;2022-09-01T06:45:32;7.97;;;4.90;;
61840;SDS011;47773;53.174;6.614;2022-09-01T06:48:03;9.25;;;4.53;;
61840;SDS011;47773;53.174;6.614;2022-09-01T06:50:29;7.38;;;4.65;;
61840;SDS011;47773;53.174;6.614;2022-09-01T06:52:54;12.32;;;4.80;;
61840;SDS011;47773;53.174;6.614;2022-09-01T06:55:34;9.70;;;4.80;;
61840;SDS011;47773;53.174;6.614;2022-09-01T06:58:02;16.42;;;5.13;;
61840;SDS011;47773;53.174;6.614;2022-09-01T07:00:32;10.82;;;4.72;;
61840;SDS011;47773;53.174;6.614;2022-09-01T07:03:06;7.03;;;4.43;;
61840;SDS011;47773;53.174;6.614;2022-09-01T07:05:39;12.07;;;4.80;;
61840;SDS011;47773;53.174;6.614;2022-09-01T07:08:06;8.18;;;4.72;;
61840;SDS011;47773;53.174;6.614;2022-09-01T07:10:39;10.57;;;4.35;;
61840;SDS011;47773;53.174;6.614;2022-09-01T07:13:10;11.68;;;4.20;;
61840;SDS011;47773;53.174;6.614;2022-09-01T07:15:40;9.90;;;3.50;;
61840;SDS011;47773;53.174;6.614;2022-09-01T07:18:07;7.55;;;3.20;;
61840;SDS011;47773;53.174;6.614;2022-09-01T07:20:34;7.10;;;2.65;;
61840;SDS011;47773;53.174;6.614;2022-09-01T07:23:03;5.85;;;3.15;;
61840;SDS011;47773;53.174;6.614;2022-09-01T07:25:29;5.43;;;2.80;;
61840;SDS011;47773;53.174;6.614;2022-09-01T07:27:58;6.80;;;2.40;;
61840;SDS011;47773;53.174;6.614;2022-09-01T07:30:25;5.68;;;2.70;;
61840;SDS011;47773;53.174;6.614;2022-09-01T07:32:51;5.80;;;2.53;;
61840;SDS011;47773;53.174;6.614;2022-09-01T07:35:19;5.28;;;2.70;;
61840;SDS011;47773;53.174;6.614;2022-09-01T07:37:46;7.20;;;2.72;;
61840;SDS011;47773;53.174;6.614;2022-09-01T07:40:16;6.97;;;2.45;;
61840;SDS011;47773;53.174;6.614;2022-09-01T07:42:47;12.13;;;2.85;;
61840;SDS011;47773;53.174;6.614;2022-09-01T07:45:18;8.10;;;2.70;;
61840;SDS011;47773;53.174;6.614;2022-09-01T07:47:43;11.23;;;2.97;;
61840;SDS011;47773;53.174;6.614;2022-09-01T07:50:10;9.05;;;2.40;;
61840;SDS011;47773;53.174;6.614;2022-09-01T07:52:39;3.28;;;2.22;;
61840;SDS011;47773;53.174;6.614;2022-09-01T07:55:11;6.85;;;2.63;;
61840;SDS011;47773;53.174;6.614;2022-09-01T07:57:38;5.20;;;2.63;;
61840;SDS011;47773;53.174;6.614;2022-09-01T08:00:07;4.55;;;2.53;;
61840;SDS011;47773;53.174;6.614;2022-09-01T08:02:35;13.00;;;2.70;;
61840;SDS011;47773;53.174;6.614;2022-09-01T08:05:04;4.72;;;2.80;;
61840;SDS011;47773;53.174;6.614;2022-09-01T08:07:36;5.07;;;2.60;;
61840;SDS011;47773;53.174;6.614;2022-09-01T08:10:02;8.20;;;2.30;;
61840;SDS011;47773;53.174;6.614;2022-09-01T08:12:30;6.95;;;2.70;;
61840;SDS011;47773;53.174;6.614;2022-09-01T08:14:56;5.13;;;2.40;;
61840;SDS011;47773;53.174;6.614;2022-09-01T08:17:21;4.38;;;2.15;;
61840;SDS011;47773;53.174;6.614;2022-09-01T08:19:47;11.25;;;2.63;;
61840;SDS011;47773;53.174;6.614;2022-09-01T08:22:13;5.25;;;2.22;;
61840;SDS011;47773;53.174;6.614;2022-09-01T08:24:40;3.15;;;2.08;;
61840;SDS011;47773;53.174;6.614;2022-09-01T08:27:05;4.63;;;2.00;;
61840;SDS011;47773;53.174;6.614;2022-09-01T08:29:32;4.82;;;2.40;;
61840;SDS011;47773;53.174;6.614;2022-09-01T08:31:58;8.77;;;2.50;;
61840;SDS011;47773;53.174;6.614;2022-09-01T08:34:24;3.63;;;2.20;;
61840;SDS011;47773;53.174;6.614;2022-09-01T08:36:50;8.10;;;2.58;;
61840;SDS011;47773;53.174;6.614;2022-09-01T08:39:16;3.92;;;2.10;;
61840;SDS011;47773;53.174;6.614;2022-09-01T08:46:53;5.05;;;1.63;;
61840;SDS011;47773;53.174;6.614;2022-09-01T08:49:26;6.97;;;2.10;;
61840;SDS011;47773;53.174;6.614;2022-09-01T08:51:53;5.32;;;1.75;;
61840;SDS011;47773;53.174;6.614;2022-09-01T08:57:22;3.33;;;1.90;;
61840;SDS011;47773;53.174;6.614;2022-09-01T08:59:51;6.20;;;1.85;;
61840;SDS011;47773;53.174;6.614;2022-09-01T09:13:44;3.72;;;1.73;;
61840;SDS011;47773;53.174;6.614;2022-09-01T09:16:20;4.15;;;1.77;;
61840;SDS011;47773;53.174;6.614;2022-09-01T09:18:52;7.82;;;1.98;;
61840;SDS011;47773;53.174;6.614;2022-09-01T09:21:38;4.38;;;2.30;;
61840;SDS011;47773;53.174;6.614;2022-09-01T09:24:09;15.05;;;2.78;;
61840;SDS011;47773;53.174;6.614;2022-09-01T09:26:49;5.95;;;2.33;;
61840;SDS011;47773;53.174;6.614;2022-09-01T09:29:16;5.55;;;2.80;;
61840;SDS011;47773;53.174;6.614;2022-09-01T09:31:43;7.65;;;2.42;;
61840;SDS011;47773;53.174;6.614;2022-09-01T09:37:33;5.15;;;2.20;;
61840;SDS011;47773;53.174;6.614;2022-09-01T09:40:26;5.43;;;2.00;;
61840;SDS011;47773;53.174;6.614;2022-09-01T09:45:22;6.50;;;1.92;;
61840;SDS011;47773;53.174;6.614;2022-09-01T09:47:53;3.15;;;1.55;;
61840;SDS011;47773;53.174;6.614;2022-09-01T09:55:53;3.45;;;1.60;;
61840;SDS011;47773;53.174;6.614;2022-09-01T09:58:25;10.57;;;1.88;;
61840;SDS011;47773;53.174;6.614;2022-09-01T10:01:09;8.10;;;1.90;;
61840;SDS011;47773;53.174;6.614;2022-09-01T10:03:41;4.97;;;1.55;;
61840;SDS011;47773;53.174;6.614;2022-09-01T10:06:15;5.57;;;1.42;;
61840;SDS011;47773;53.174;6.614;2022-09-01T10:09:06;5.68;;;1.40;;
61840;SDS011;47773;53.174;6.614;2022-09-01T10:11:37;4.57;;;1.67;;
61840;SDS011;47773;53.174;6.614;2022-09-01T10:14:15;3.53;;;1.52;;
61840;SDS011;47773;53.174;6.614;2022-09-01T10:16:49;12.07;;;1.85;;
61840;SDS011;47773;53.174;6.614;2022-09-01T10:19:18;6.55;;;1.48;;
61840;SDS011;47773;53.174;6.614;2022-09-01T10:21:45;15.10;;;1.67;;
61840;SDS011;47773;53.174;6.614;2022-09-01T10:24:18;4.60;;;1.13;;
61840;SDS011;47773;53.174;6.614;2022-09-01T10:26:56;2.58;;;1.23;;
61840;SDS011;47773;53.174;6.614;2022-09-01T10:29:28;4.20;;;1.45;;
61840;SDS011;47773;53.174;6.614;2022-09-01T10:31:58;4.25;;;1.50;;
61840;SDS011;47773;53.174;6.614;2022-09-01T10:34:26;2.95;;;1.33;;
61840;SDS011;47773;53.174;6.614;2022-09-01T10:36:56;18.98;;;2.42;;
61840;SDS011;47773;53.174;6.614;2022-09-01T10:39:23;6.32;;;1.33;;
61840;SDS011;47773;53.174;6.614;2022-09-01T10:41:55;4.35;;;1.70;;
61840;SDS011;47773;53.174;6.614;2022-09-01T10:46:56;6.03;;;1.17;;
61840;SDS011;47773;53.174;6.614;2022-09-01T10:51:53;4.57;;;1.20;;
61840;SDS011;47773;53.174;6.614;2022-09-01T10:57:08;1.80;;;0.90;;
61840;SDS011;47773;53.174;6.614;2022-09-01T11:00:00;5.45;;;1.20;;
61840;SDS011;47773;53.174;6.614;2022-09-01T11:11:04;3.13;;;1.20;;
61840;SDS011;47773;53.174;6.614;2022-09-01T11:21:46;5.22;;;0.77;;
61840;SDS011;47773;53.174;6.614;2022-09-01T11:27:09;4.15;;;1.10;;
61840;SDS011;47773;53.174;6.614;2022-09-01T11:29:56;2.67;;;0.95;;
61840;SDS011;47773;53.174;6.614;2022-09-01T11:32:33;3.55;;;1.02;;
61840;SDS011;47773;53.174;6.614;2022-09-01T11:35:04;5.72;;;1.10;;
61840;SDS011;47773;53.174;6.614;2022-09-01T11:37:39;6.50;;;1.10;;
61840;SDS011;47773;53.174;6.614;2022-09-01T11:40:05;3.45;;;1.00;;
61840;SDS011;47773;53.174;6.614;2022-09-01T11:45:26;13.07;;;1.33;;
61840;SDS011;47773;53.174;6.614;2022-09-01T11:48:05;5.95;;;1.17;;
61840;SDS011;47773;53.174;6.614;2022-09-01T11:50:35;3.33;;;1.30;;
61840;SDS011;47773;53.174;6.614;2022-09-01T11:53:04;8.88;;;0.90;;
61840;SDS011;47773;53.174;6.614;2022-09-01T11:55:37;14.85;;;1.45;;
61840;SDS011;47773;53.174;6.614;2022-09-01T11:58:05;1.67;;;0.90;;
61840;SDS011;47773;53.174;6.614;2022-09-01T12:00:35;7.18;;;1.00;;
61840;SDS011;47773;53.174;6.614;2022-09-01T12:03:04;3.30;;;1.00;;
61840;SDS011;47773;53.174;6.614;2022-09-01T12:05:44;6.00;;;1.00;;
61840;SDS011;47773;53.174;6.614;2022-09-01T12:08:16;1.67;;;0.90;;
61840;SDS011;47773;53.174;6.614;2022-09-01T12:10:43;3.08;;;0.88;;
61840;SDS011;47773;53.174;6.614;2022-09-01T12:15:42;4.97;;;1.05;;
61840;SDS011;47773;53.174;6.614;2022-09-01T12:18:13;2.20;;;0.90;;
61840;SDS011;47773;53.174;6.614;2022-09-01T12:20:45;3.63;;;1.20;;
61840;SDS011;47773;53.174;6.614;2022-09-01T12:26:13;5.10;;;1.20;;
61840;SDS011;47773;53.174;6.614;2022-09-01T12:28:40;5.90;;;1.30;;
61840;SDS011;47773;53.174;6.614;2022-09-01T12:31:11;2.75;;;1.08;;
61840;SDS011;47773;53.174;6.614;2022-09-01T12:33:41;4.65;;;0.90;;
61840;SDS011;47773;53.174;6.614;2022-09-01T12:38:48;5.70;;;1.20;;
61840;SDS011;47773;53.174;6.614;2022-09-01T12:46:54;9.60;;;2.33;;
61840;SDS011;47773;53.174;6.614;2022-09-01T12:49:23;72.18;;;35.03;;
61840;SDS011;47773;53.174;6.614;2022-09-01T12:52:10;536.58;;;267.58;;
61840;SDS011;47773;53.174;6.614;2022-09-01T12:54:37;372.40;;;153.25;;
61840;SDS011;47773;53.174;6.614;2022-09-01T12:57:02;165.52;;;66.22;;
61840;SDS011;47773;53.174;6.614;2022-09-01T12:59:29;12.05;;;5.05;;
61840;SDS011;47773;53.174;6.614;2022-09-01T13:01:55;7.05;;;2.10;;
61840;SDS011;47773;53.174;6.614;2022-09-01T13:06:56;2.58;;;1.10;;
61840;SDS011;47773;53.174;6.614;2022-09-01T13:09:26;4.18;;;1.27;;
61840;SDS011;47773;53.174;6.614;2022-09-01T13:11:51;5.05;;;1.20;;
61840;SDS011;47773;53.174;6.614;2022-09-01T13:14:17;5.72;;;1.00;;
61840;SDS011;47773;53.174;6.614;2022-09-01T13:16:43;2.00;;;1.13;;
61840;SDS011;47773;53.174;6.614;2022-09-01T13:19:09;3.65;;;1.35;;
61840;SDS011;47773;53.174;6.614;2022-09-01T13:21:35;3.15;;;1.15;;
61840;SDS011;47773;53.174;6.614;2022-09-01T13:24:02;1.63;;;0.95;;
61840;SDS011;47773;53.174;6.614;2022-09-01T13:26:29;2.13;;;0.88;;
61840;SDS011;47773;53.174;6.614;2022-09-01T13:28:55;3.38;;;1.20;;
61840;SDS011;47773;53.174;6.614;2022-09-01T13:31:21;9.07;;;1.08;;
61840;SDS011;47773;53.174;6.614;2022-09-01T13:33:47;9.15;;;1.30;;
61840;SDS011;47773;53.174;6.614;2022-09-01T13:36:13;9.18;;;1.10;;
61840;SDS011;47773;53.174;6.614;2022-09-01T13:38:39;3.08;;;0.98;;
61840;SDS011;47773;53.174;6.614;2022-09-01T13:41:04;3.75;;;1.05;;
61840;SDS011;47773;53.174;6.614;2022-09-01T13:43:30;2.72;;;1.15;;
61840;SDS011;47773;53.174;6.614;2022-09-01T13:45:58;1.98;;;0.93;;
61840;SDS011;47773;53.174;6.614;2022-09-01T13:48:23;3.95;;;1.00;;
61840;SDS011;47773;53.174;6.614;2022-09-01T13:50:50;2.63;;;0.98;;
61840;SDS011;47773;53.174;6.614;2022-09-01T13:53:19;2.78;;;1.30;;
61840;SDS011;47773;53.174;6.614;2022-09-01T13:55:45;3.72;;;1.10;;
61840;SDS011;47773;53.174;6.614;2022-09-01T13:58:12;6.85;;;1.10;;
61840;SDS011;47773;53.174;6.614;2022-09-01T14:00:40;2.75;;;1.10;;
61840;SDS011;47773;53.174;6.614;2022-09-01T14:03:15;6.32;;;1.30;;
61840;SDS011;47773;53.174;6.614;2022-09-01T14:05:43;2.42;;;0.98;;
61840;SDS011;47773;53.174;6.614;2022-09-01T14:08:12;3.00;;;0.80;;
61840;SDS011;47773;53.174;6.614;2022-09-01T14:10:41;3.67;;;0.93;;
61840;SDS011;47773;53.174;6.614;2022-09-01T14:13:09;2.90;;;0.80;;
61840;SDS011;47773;53.174;6.614;2022-09-01T14:15:35;5.88;;;1.00;;
61840;SDS011;47773;53.174;6.614;2022-09-01T14:18:01;5.10;;;1.13;;
61840;SDS011;47773;53.174;6.614;2022-09-01T14:20:29;2.20;;;0.90;;
61840;SDS011;47773;53.174;6.614;2022-09-01T14:23:00;2.75;;;0.95;;
61840;SDS011;47773;53.174;6.614;2022-09-01T14:25:28;2.60;;;0.95;;
61840;SDS011;47773;53.174;6.614;2022-09-01T14:27:54;5.20;;;1.20;;
61840;SDS011;47773;53.174;6.614;2022-09-01T14:30:22;2.50;;;1.00;;
61840;SDS011;47773;53.174;6.614;2022-09-01T14:32:49;5.90;;;1.13;;
61840;SDS011;47773;53.174;6.614;2022-09-01T14:35:16;4.38;;;0.85;;
61840;SDS011;47773;53.174;6.614;2022-09-01T14:37:44;6.32;;;1.20;;
61840;SDS011;47773;53.174;6.614;2022-09-01T14:40:11;2.65;;;0.82;;
61840;SDS011;47773;53.174;6.614;2022-09-01T14:42:39;9.27;;;1.00;;
61840;SDS011;47773;53.174;6.614;2022-09-01T14:45:10;6.95;;;1.00;;
61840;SDS011;47773;53.174;6.614;2022-09-01T14:47:37;2.95;;;0.88;;
61840;SDS011;47773;53.174;6.614;2022-09-01T14:50:03;2.03;;;1.00;;
61840;SDS011;47773;53.174;6.614;2022-09-01T14:52:30;1.10;;;0.70;;
61840;SDS011;47773;53.174;6.614;2022-09-01T14:54:56;3.53;;;1.17;;
61840;SDS011;47773;53.174;6.614;2022-09-01T14:57:22;4.03;;;1.00;;
61840;SDS011;47773;53.174;6.614;2022-09-01T14:59:47;2.38;;;1.05;;
61840;SDS011;47773;53.174;6.614;2022-09-01T15:02:13;5.20;;;0.90;;
61840;SDS011;47773;53.174;6.614;2022-09-01T15:04:39;1.77;;;0.93;;
61840;SDS011;47773;53.174;6.614;2022-09-01T15:07:06;2.83;;;0.93;;
61840;SDS011;47773;53.174;6.614;2022-09-01T15:09:32;2.58;;;0.90;;
61840;SDS011;47773;53.174;6.614;2022-09-01T15:11:58;2.63;;;1.00;;
61840;SDS011;47773;53.174;6.614;2022-09-01T15:14:24;6.35;;;1.35;;
61840;SDS011;47773;53.174;6.614;2022-09-01T15:16:49;2.17;;;0.80;;
61840;SDS011;47773;53.174;6.614;2022-09-01T15:19:15;1.45;;;0.77;;
61840;SDS011;47773;53.174;6.614;2022-09-01T15:21:42;2.78;;;1.10;;
61840;SDS011;47773;53.174;6.614;2022-09-01T15:24:09;4.90;;;0.98;;
61840;SDS011;47773;53.174;6.614;2022-09-01T15:26:35;3.67;;;0.90;;
61840;SDS011;47773;53.174;6.614;2022-09-01T15:29:02;5.45;;;1.05;;
61840;SDS011;47773;53.174;6.614;2022-09-01T15:31:28;7.82;;;0.90;;
61840;SDS011;47773;53.174;6.614;2022-09-01T15:33:57;2.70;;;1.20;;
61840;SDS011;47773;53.174;6.614;2022-09-01T15:36:25;3.97;;;1.05;;
61840;SDS011;47773;53.174;6.614;2022-09-01T15:38:52;2.10;;;0.80;;
61840;SDS011;47773;53.174;6.614;2022-09-01T15:41:23;3.63;;;0.80;;
61840;SDS011;47773;53.174;6.614;2022-09-01T15:43:50;3.42;;;1.10;;
61840;SDS011;47773;53.174;6.614;2022-09-01T15:46:16;3.83;;;0.80;;
61840;SDS011;47773;53.174;6.614;2022-09-01T15:48:42;8.82;;;1.00;;
61840;SDS011;47773;53.174;6.614;2022-09-01T15:53:46;5.05;;;0.80;;
61840;SDS011;47773;53.174;6.614;2022-09-01T15:56:13;4.78;;;0.90;;
61840;SDS011;47773;53.174;6.614;2022-09-01T15:58:42;1.77;;;0.88;;
61840;SDS011;47773;53.174;6.614;2022-09-01T16:01:08;3.03;;;0.75;;
61840;SDS011;47773;53.174;6.614;2022-09-01T16:03:33;1.60;;;0.80;;
61840;SDS011;47773;53.174;6.614;2022-09-01T16:06:00;3.92;;;0.93;;
61840;SDS011;47773;53.174;6.614;2022-09-01T16:08:26;2.38;;;0.98;;
61840;SDS011;47773;53.174;6.614;2022-09-01T16:10:51;7.32;;;1.15;;
61840;SDS011;47773;53.174;6.614;2022-09-01T16:13:18;3.45;;;0.90;;
61840;SDS011;47773;53.174;6.614;2022-09-01T16:15:50;2.22;;;0.80;;
61840;SDS011;47773;53.174;6.614;2022-09-01T16:21:23;2.63;;;0.70;;
61840;SDS011;47773;53.174;6.614;2022-09-01T16:23:52;4.75;;;0.95;;
61840;SDS011;47773;53.174;6.614;2022-09-01T16:26:18;4.32;;;0.60;;
61840;SDS011;47773;53.174;6.614;2022-09-01T16:28:54;3.20;;;1.00;;